createdAt,value
2023-04-15T00:00:05.364Z,63.79
2023-04-15T00:02:36.351Z,63.95
2023-04-15T00:04:40.188Z,63.95
2023-04-15T00:06:43.791Z,64.01
2023-04-15T00:08:47.698Z,64.01
2023-04-15T00:10:51.197Z,64.01
2023-04-15T00:12:54.495Z,64.01
2023-04-15T00:14:58.944Z,64.01
2023-04-15T00:17:01.817Z,64.06
2023-04-15T00:19:04.955Z,64.03
2023-04-15T00:21:08.804Z,63.94
2023-04-15T00:23:11.817Z,64.05
2023-04-15T00:25:17.410Z,63.85
2023-04-15T00:27:20.677Z,63.98
2023-04-15T00:29:24.192Z,63.97
2023-04-15T00:31:27.435Z,63.98
2023-04-15T00:33:32.291Z,64.04
2023-04-15T00:35:37.665Z,64.02
2023-04-15T00:37:41.640Z,64.24
2023-04-15T00:39:46.568Z,64.03
2023-04-15T00:41:50.665Z,63.87
2023-04-15T00:43:55.524Z,63.87
2023-04-15T00:46:02.495Z,63.95
2023-04-15T00:48:05.867Z,64.07
2023-04-15T00:50:11.153Z,64.13
2023-04-15T00:52:14.870Z,64.07
2023-04-15T00:54:18.091Z,64.22
2023-04-15T00:56:24.564Z,64.41
2023-04-15T00:58:28.340Z,64.41
2023-04-15T01:00:32.269Z,64.26
2023-04-15T01:02:42.929Z,64.23
2023-04-15T01:04:49.050Z,64.28
2023-04-15T01:06:55.354Z,64.45
2023-04-15T01:11:28.064Z,64.61
2023-04-15T01:13:37.337Z,64.64
2023-04-15T01:15:43.120Z,64.40
2023-04-15T01:20:19.677Z,64.42
2023-04-15T01:22:33.312Z,64.41
2023-04-15T01:24:41.848Z,64.40
2023-04-15T01:26:51.488Z,64.56
2023-04-15T01:28:57.805Z,64.64
2023-04-15T01:31:12.666Z,64.64
2023-04-15T01:33:19.178Z,64.61
2023-04-15T01:35:38.574Z,64.63
2023-04-15T01:37:46.248Z,64.60
2023-04-15T01:39:51.159Z,64.44
2023-04-15T01:41:59.795Z,64.56
2023-04-15T01:44:33.564Z,64.68
2023-04-15T01:46:39.284Z,64.65
2023-04-15T01:48:45.032Z,64.57
2023-04-15T01:50:52.455Z,64.69
2023-04-15T01:52:59.733Z,64.72
2023-04-15T01:55:09.752Z,64.78
2023-04-15T01:57:18.394Z,64.70
2023-04-15T01:59:24.863Z,64.87
2023-04-15T02:01:33.454Z,64.69
2023-04-15T02:03:43.036Z,64.56
2023-04-15T02:05:48.579Z,64.70
2023-04-15T02:07:57.163Z,64.42
2023-04-15T02:10:01.686Z,64.21
2023-04-15T02:12:05.668Z,64.47
2023-04-15T02:14:38.251Z,64.31
2023-04-15T02:16:43.751Z,64.44
2023-04-15T02:18:47.854Z,64.30
2023-04-15T02:21:04.476Z,64.02
2023-04-15T02:23:13.851Z,64.02
2023-04-15T02:25:20.593Z,63.94
2023-04-15T02:27:25.456Z,64.10
2023-04-15T02:29:33.833Z,64.15
2023-04-15T02:31:45.477Z,64.26
2023-04-15T02:33:54.504Z,64.45
2023-04-15T02:36:19.932Z,64.46
2023-04-15T02:38:23.713Z,64.39
2023-04-15T02:40:30.973Z,64.58
2023-04-15T02:42:39.547Z,64.52
2023-04-15T02:44:43.790Z,64.75
2023-04-15T02:46:53.706Z,64.63
2023-04-15T02:49:09.900Z,64.73
2023-04-15T02:51:24.658Z,64.75
2023-04-15T02:53:33.639Z,64.69
2023-04-15T02:55:39.461Z,64.98
2023-04-15T02:57:48.637Z,64.57
2023-04-15T02:59:55.773Z,64.61
2023-04-15T03:02:03.204Z,64.77
2023-04-15T03:04:11.754Z,64.77
2023-04-15T03:06:16.898Z,64.76
2023-04-15T03:08:25.288Z,64.96
2023-04-15T03:10:28.758Z,64.83
2023-04-15T03:12:34.730Z,65.02
2023-04-15T03:14:46.919Z,64.94
2023-04-15T03:17:00.214Z,64.85
2023-04-15T03:19:19.446Z,65.08
2023-04-15T03:21:32.573Z,64.77
2023-04-15T03:23:37.503Z,64.80
2023-04-15T03:25:45.601Z,65.05
2023-04-15T03:27:49.047Z,64.91
2023-04-15T03:29:52.662Z,64.87
2023-04-15T03:31:55.962Z,64.88
2023-04-15T03:33:59.408Z,64.70
2023-04-15T03:36:06.696Z,64.83
2023-04-15T03:38:10.936Z,64.87
2023-04-15T03:40:18.762Z,65.02
2023-04-15T03:42:37.479Z,65.00
2023-04-15T03:44:42.891Z,64.83
2023-04-15T03:46:45.901Z,64.94
2023-04-15T03:48:53.974Z,65.11
2023-04-15T03:50:57.827Z,65.13
2023-04-15T03:53:03.286Z,65.05
2023-04-15T03:55:09.120Z,65.19
2023-04-15T03:57:23.928Z,64.97
2023-04-15T03:59:27.877Z,65.06
2023-04-15T04:01:33.542Z,64.99
2023-04-15T04:03:37.969Z,64.93
2023-04-15T04:05:44.683Z,64.98
2023-04-15T04:07:47.751Z,64.91
2023-04-15T04:09:51.801Z,65.07
2023-04-15T04:11:57.243Z,64.86
2023-04-15T04:14:07.481Z,64.81
2023-04-15T04:16:15.703Z,64.94
2023-04-15T04:18:24.901Z,65.10
2023-04-15T04:20:32.521Z,64.85
2023-04-15T04:22:42.800Z,64.62
2023-04-15T04:24:48.716Z,64.79
2023-04-15T04:26:52.713Z,64.71
2023-04-15T04:28:58.559Z,64.89
2023-04-15T04:31:03.991Z,65.03
2023-04-15T04:33:30.438Z,64.91
2023-04-15T04:35:37.918Z,64.94
2023-04-15T04:37:42.148Z,64.98
2023-04-15T04:39:45.968Z,64.84
2023-04-15T04:41:50.596Z,64.99
2023-04-15T04:43:54.139Z,64.92
2023-04-15T04:46:00.198Z,64.87
2023-04-15T04:48:07.263Z,64.88
2023-04-15T04:50:11.982Z,64.90
2023-04-15T04:52:17.925Z,64.75
2023-04-15T04:54:21.578Z,64.85
2023-04-15T04:56:24.845Z,64.93
2023-04-15T04:58:28.628Z,65.03
2023-04-15T05:00:31.491Z,65.47
2023-04-15T05:02:40.633Z,65.49
2023-04-15T05:04:43.938Z,65.56
2023-04-15T05:06:47.879Z,65.60
2023-04-15T05:08:51.552Z,65.60
2023-04-15T05:10:55.485Z,65.76
2023-04-15T05:13:01.644Z,66.12
2023-04-15T05:15:06.185Z,66.27
2023-04-15T05:17:16.307Z,66.52
2023-04-15T05:19:34.385Z,66.41
2023-04-15T05:21:47.296Z,66.32
2023-04-15T05:23:52.485Z,66.49
2023-04-15T05:25:58.003Z,66.58
2023-04-15T05:28:00.915Z,66.85
2023-04-15T05:30:15.266Z,66.86
2023-04-15T05:32:25.449Z,67.00
2023-04-15T05:34:28.914Z,66.95
2023-04-15T05:39:01.129Z,67.22
2023-04-15T05:41:10.525Z,67.29
2023-04-15T05:43:15.335Z,67.13
2023-04-15T05:45:27.374Z,67.20
2023-04-15T05:47:49.203Z,67.42
2023-04-15T05:49:54.274Z,67.32
2023-04-15T05:52:01.852Z,67.34
2023-04-15T05:54:20.258Z,67.38
2023-04-15T05:56:45.835Z,67.17
2023-04-15T05:58:53.825Z,67.33
2023-04-15T06:01:02.869Z,67.66
2023-04-15T06:03:09.054Z,67.68
2023-04-15T06:05:43.766Z,67.52
2023-04-15T06:07:50.712Z,67.35
2023-04-15T06:10:02.689Z,67.46
2023-04-15T06:12:10.038Z,67.68
2023-04-15T06:14:19.382Z,68.06
2023-04-15T06:16:23.688Z,68.32
2023-04-15T06:18:30.629Z,68.03
2023-04-15T06:20:36.244Z,68.04
2023-04-15T06:22:54.370Z,67.79
2023-04-15T06:25:06.344Z,68.18
2023-04-15T06:27:24.591Z,68.32
2023-04-15T06:29:28.238Z,68.41
2023-04-15T06:31:51.421Z,68.60
2023-04-15T06:33:58.230Z,68.37
2023-04-15T06:36:20.338Z,68.56
2023-04-15T06:38:24.664Z,69.01
2023-04-15T06:40:30.704Z,69.00
2023-04-15T06:42:35.651Z,68.95
2023-04-15T06:44:44.165Z,68.72
2023-04-15T06:46:55.510Z,68.53
2023-04-15T06:49:01.057Z,68.74
2023-04-15T06:51:08.088Z,68.87
2023-04-15T06:53:20.061Z,68.91
2023-04-15T06:55:23.361Z,68.56
2023-04-15T06:57:27.867Z,68.65
2023-04-15T06:59:30.738Z,68.67
2023-04-15T07:01:38.553Z,68.36
2023-04-15T07:03:45.350Z,68.65
2023-04-15T07:05:54.295Z,69.00
2023-04-15T07:08:09.467Z,69.01
2023-04-15T07:10:16.213Z,69.09
2023-04-15T07:12:20.773Z,68.81
2023-04-15T07:14:27.936Z,69.11
2023-04-15T07:16:34.724Z,69.48
2023-04-15T07:18:38.778Z,69.67
2023-04-15T07:20:48.253Z,69.51
2023-04-15T07:22:53.660Z,69.45
2023-04-15T07:24:59.480Z,69.54
2023-04-15T07:27:08.357Z,69.94
2023-04-15T07:31:39.616Z,69.83
2023-04-15T07:33:49.118Z,69.99
2023-04-15T07:36:07.146Z,70.20
2023-04-15T07:40:41.050Z,70.04
2023-04-15T07:43:01.148Z,70.00
2023-04-15T07:45:09.088Z,69.94
2023-04-15T07:47:13.053Z,70.09
2023-04-15T07:49:16.977Z,70.08
2023-04-15T07:51:30.341Z,70.14
2023-04-15T07:53:54.829Z,70.18
2023-04-15T07:56:10.745Z,70.32
2023-04-15T07:58:35.386Z,70.47
2023-04-15T08:00:41.142Z,70.32
2023-04-15T08:02:51.017Z,70.28
2023-04-15T08:05:03.474Z,70.28
2023-04-15T08:07:37.463Z,70.32
2023-04-15T08:09:44.405Z,70.31
2023-04-15T08:12:00.871Z,70.23
2023-04-15T08:14:28.740Z,70.31
2023-04-15T08:16:33.190Z,70.74
2023-04-15T08:18:40.936Z,70.61
2023-04-15T08:20:57.128Z,70.61
2023-04-15T08:23:06.845Z,70.60
2023-04-15T08:25:29.696Z,70.58
2023-04-15T08:27:40.791Z,70.45
2023-04-15T08:29:57.022Z,70.82
2023-04-15T08:32:09.905Z,70.83
2023-04-15T08:34:35.084Z,70.95
2023-04-15T08:36:42.854Z,70.71
2023-04-15T08:38:49.101Z,71.04
2023-04-15T08:40:52.663Z,70.90
2023-04-15T08:45:48.076Z,70.85
2023-04-15T08:48:47.158Z,70.76
2023-04-15T08:50:36.266Z,70.58
2023-04-15T08:52:40.895Z,70.91
2023-04-15T08:54:53.627Z,71.00
2023-04-15T08:57:02.718Z,71.14
2023-04-15T08:59:08.614Z,70.98
2023-04-15T09:01:43.634Z,71.22
2023-04-15T09:03:54.494Z,71.30
2023-04-15T09:06:03.511Z,71.17
2023-04-15T09:08:09.411Z,71.19
2023-04-15T09:10:33.806Z,71.22
2023-04-15T09:12:38.893Z,71.38
2023-04-15T09:14:47.012Z,71.51
2023-04-15T09:17:01.422Z,71.46
2023-04-15T09:19:26.091Z,71.18
2023-04-15T09:21:32.274Z,71.36
2023-04-15T09:23:37.457Z,71.36
2023-04-15T09:25:53.417Z,71.47
2023-04-15T09:28:01.803Z,71.80
2023-04-15T09:30:10.085Z,71.64
2023-04-15T09:32:34.402Z,71.60
2023-04-15T09:34:38.546Z,71.59
2023-04-15T09:36:57.022Z,71.37
2023-04-15T09:41:44.305Z,71.93
2023-04-15T09:43:53.021Z,71.90
2023-04-15T09:46:05.683Z,71.68
2023-04-15T09:48:32.339Z,71.31
2023-04-15T09:50:57.932Z,71.14
2023-04-15T09:53:04.434Z,71.41
2023-04-15T09:55:13.077Z,71.24
2023-04-15T09:57:19.903Z,71.33
2023-04-15T09:59:25.488Z,71.14
2023-04-15T10:01:29.990Z,71.64
2023-04-15T10:03:40.571Z,71.45
2023-04-15T10:05:52.586Z,71.29
2023-04-15T10:07:56.875Z,71.32
2023-04-15T10:10:05.171Z,71.41
2023-04-15T10:12:10.565Z,71.64
2023-04-15T10:14:31.158Z,71.35
2023-04-15T10:16:40.124Z,71.28
2023-04-15T10:18:46.807Z,71.13
2023-04-15T10:20:58.254Z,71.43
2023-04-15T10:25:34.532Z,71.73
2023-04-15T10:27:41.273Z,71.96
2023-04-15T10:32:03.485Z,72.00
2023-04-15T10:34:09.083Z,72.09
2023-04-15T10:36:13.015Z,72.17
2023-04-15T10:38:41.900Z,72.05
2023-04-15T10:40:48.234Z,72.26
2023-04-15T10:42:57.570Z,72.32
2023-04-15T10:45:04.562Z,72.29
2023-04-15T10:47:14.208Z,72.12
2023-04-15T10:49:32.428Z,72.32
2023-04-15T10:51:42.853Z,72.15
2023-04-15T10:53:46.313Z,72.35
2023-04-15T10:55:55.148Z,72.24
2023-04-15T10:58:04.313Z,72.27
2023-04-15T11:00:18.635Z,72.18
2023-04-15T11:02:45.483Z,72.40
2023-04-15T11:04:55.803Z,72.14
2023-04-15T11:07:07.521Z,72.29
2023-04-15T11:09:33.784Z,72.38
2023-04-15T11:12:22.285Z,72.56
2023-04-15T11:14:26.603Z,72.27
2023-04-15T11:16:31.057Z,72.38
2023-04-15T11:18:38.912Z,72.46
2023-04-15T11:20:59.692Z,72.49
2023-04-15T11:23:14.655Z,72.48
2023-04-15T11:25:27.710Z,72.46
2023-04-15T11:27:36.682Z,72.53
2023-04-15T11:29:52.460Z,72.43
2023-04-15T11:32:10.526Z,72.54
2023-04-15T11:34:24.054Z,72.60
2023-04-15T11:36:34.553Z,72.69
2023-04-15T11:38:56.095Z,72.63
2023-04-15T11:41:03.817Z,72.69
2023-04-15T11:43:15.989Z,72.50
2023-04-15T11:45:23.398Z,72.58
2023-04-15T11:47:27.515Z,72.38
2023-04-15T11:49:34.351Z,72.12
2023-04-15T11:51:37.908Z,72.01
2023-04-15T11:54:15.155Z,72.17
2023-04-15T11:56:22.809Z,72.25
2023-04-15T11:58:42.501Z,72.26
2023-04-15T12:00:56.192Z,71.94
2023-04-15T12:03:20.215Z,71.92
2023-04-15T12:05:25.857Z,72.11
2023-04-15T12:07:58.622Z,72.16
2023-04-15T12:10:03.996Z,72.34
2023-04-15T12:12:15.008Z,72.22
2023-04-15T12:14:51.859Z,72.03
2023-04-15T12:16:58.817Z,72.05
2023-04-15T12:19:10.983Z,71.98
2023-04-15T12:21:17.117Z,72.12
2023-04-15T12:23:20.734Z,71.83
2023-04-15T12:25:35.575Z,71.93
2023-04-15T12:27:39.430Z,71.82
2023-04-15T12:29:49.248Z,71.50
2023-04-15T12:31:54.277Z,71.55
2023-04-15T12:34:00.775Z,71.51
2023-04-15T12:36:08.060Z,71.58
2023-04-15T12:38:12.183Z,71.66
2023-04-15T12:40:17.834Z,71.80
2023-04-15T12:42:23.008Z,71.81
2023-04-15T12:44:27.356Z,71.74
2023-04-15T12:46:30.614Z,71.80
2023-04-15T12:48:33.566Z,71.61
2023-04-15T12:50:40.140Z,71.63
2023-04-15T12:53:00.539Z,71.69
2023-04-15T12:55:17.523Z,71.44
2023-04-15T12:57:24.620Z,71.36
2023-04-15T12:59:29.242Z,71.25
2023-04-15T13:01:33.541Z,71.41
2023-04-15T13:03:37.810Z,71.57
2023-04-15T13:05:43.590Z,71.66
2023-04-15T13:07:46.475Z,71.94
2023-04-15T13:09:51.962Z,71.89
2023-04-15T13:11:59.500Z,71.79
2023-04-15T13:14:05.583Z,71.68
2023-04-15T13:16:10.090Z,71.67
2023-04-15T13:18:14.795Z,71.72
2023-04-15T13:20:19.980Z,71.78
2023-04-15T13:22:22.752Z,71.65
2023-04-15T13:24:28.217Z,71.65
2023-04-15T13:26:35.612Z,71.77
2023-04-15T13:28:40.070Z,72.00
2023-04-15T13:30:54.770Z,72.06
2023-04-15T13:33:02.921Z,71.75
2023-04-15T13:35:52.671Z,71.49
2023-04-15T13:37:56.941Z,71.68
2023-04-15T13:40:02.902Z,71.71
2023-04-15T13:42:10.446Z,71.67
2023-04-15T13:44:14.720Z,71.85
2023-04-15T13:46:17.931Z,71.81
2023-04-15T13:48:29.781Z,71.93
2023-04-15T13:50:55.025Z,71.86
2023-04-15T13:53:09.550Z,71.91
2023-04-15T13:55:20.419Z,71.80
2023-04-15T13:57:29.867Z,71.87
2023-04-15T13:59:35.006Z,71.91
2023-04-15T14:01:38.104Z,71.89
2023-04-15T14:03:41.414Z,72.04
2023-04-15T14:05:47.868Z,71.90
2023-04-15T14:08:05.579Z,72.17
2023-04-15T14:10:14.152Z,72.14
2023-04-15T14:12:18.268Z,72.10
2023-04-15T14:14:21.319Z,72.24
2023-04-15T14:16:27.522Z,72.23
2023-04-15T14:18:45.399Z,72.30
2023-04-15T14:21:24.402Z,72.43
2023-04-15T14:23:28.465Z,72.42
2023-04-15T14:25:33.939Z,72.25
2023-04-15T14:27:39.633Z,72.49
2023-04-15T14:29:44.142Z,72.20
2023-04-15T14:32:08.619Z,72.42
2023-04-15T14:34:13.456Z,72.48
2023-04-15T14:36:16.572Z,72.61
2023-04-15T14:38:22.845Z,72.72
2023-04-15T14:40:32.521Z,72.83
2023-04-15T14:42:40.156Z,72.90
2023-04-15T14:44:45.150Z,73.00
2023-04-15T14:46:51.717Z,72.91
2023-04-15T14:49:00.059Z,72.83
2023-04-15T14:51:18.005Z,72.83
2023-04-15T14:53:31.386Z,72.75
2023-04-15T14:55:36.422Z,72.86
2023-04-15T14:57:46.822Z,72.67
2023-04-15T14:59:49.744Z,72.84
2023-04-15T15:01:59.031Z,72.98
2023-04-15T15:04:02.417Z,72.91
2023-04-15T15:06:06.923Z,72.65
2023-04-15T15:08:10.744Z,72.67
2023-04-15T15:10:13.919Z,72.59
2023-04-15T15:12:17.384Z,72.63
2023-04-15T15:14:20.612Z,72.60
2023-04-15T15:16:23.841Z,72.66
2023-04-15T15:18:27.516Z,72.51
2023-04-15T15:20:36.542Z,72.74
2023-04-15T15:22:40.346Z,72.76
2023-04-15T15:24:43.148Z,72.88
2023-04-15T15:26:46.803Z,72.80
2023-04-15T15:28:51.460Z,72.91
2023-04-15T15:30:54.850Z,72.99
2023-04-15T15:32:58.358Z,72.98
2023-04-15T15:35:01.349Z,72.94
2023-04-15T15:37:04.934Z,72.79
2023-04-15T15:39:10.629Z,72.39
2023-04-15T15:41:16.418Z,72.62
2023-04-15T15:43:22.790Z,72.75
2023-04-15T15:45:44.636Z,72.90
2023-04-15T15:47:51.598Z,72.96
2023-04-15T15:49:55.838Z,72.81
2023-04-15T15:52:00.845Z,72.73
2023-04-15T15:54:06.340Z,72.68
2023-04-15T15:56:10.450Z,72.95
2023-04-15T15:58:14.523Z,72.75
2023-04-15T16:00:40.009Z,72.95
2023-04-15T16:04:53.030Z,72.64
2023-04-15T16:06:58.600Z,72.56
2023-04-15T16:09:03.662Z,72.61
2023-04-15T16:11:12.571Z,72.73
2023-04-15T16:13:18.767Z,72.92
2023-04-15T16:15:44.019Z,72.85
2023-04-15T16:17:50.556Z,72.99
2023-04-15T16:20:01.356Z,73.14
2023-04-15T16:22:05.874Z,73.25
2023-04-15T16:24:11.223Z,73.15
2023-04-15T16:26:18.342Z,73.19
2023-04-15T16:28:26.847Z,73.06
2023-04-15T16:30:32.461Z,73.08
2023-04-15T16:32:40.507Z,73.10
2023-04-15T16:35:11.952Z,73.04
2023-04-15T16:37:17.348Z,72.87
2023-04-15T16:39:27.271Z,72.85
2023-04-15T16:41:34.444Z,72.85
2023-04-15T16:43:37.197Z,72.98
2023-04-15T16:45:54.989Z,73.16
2023-04-15T16:48:04.363Z,73.14
2023-04-15T16:50:09.378Z,72.88
2023-04-15T16:54:58.391Z,73.06
2023-04-15T16:57:03.549Z,73.12
2023-04-15T16:59:06.765Z,73.10
2023-04-15T17:03:28.942Z,73.06
2023-04-15T17:05:32.909Z,72.88
2023-04-15T17:07:37.692Z,73.07
2023-04-15T17:09:41.196Z,72.93
2023-04-15T17:11:45.672Z,73.15
2023-04-15T17:13:49.154Z,73.10
2023-04-15T17:15:56.209Z,73.28
2023-04-15T17:18:02.431Z,73.14
2023-04-15T17:20:26.888Z,73.11
2023-04-15T17:22:34.227Z,73.22
2023-04-15T17:25:07.044Z,73.17
2023-04-15T17:27:12.104Z,73.21
2023-04-15T17:29:14.837Z,73.27
2023-04-15T17:31:18.473Z,73.09
2023-04-15T17:33:58.860Z,73.30
2023-04-15T17:35:56.321Z,73.16
2023-04-15T17:38:01.022Z,73.05
2023-04-15T17:40:12.379Z,73.07
2023-04-15T17:42:17.894Z,73.07
2023-04-15T17:44:25.137Z,73.04
2023-04-15T17:46:31.880Z,72.87
2023-04-15T17:48:37.107Z,73.03
2023-04-15T17:50:51.880Z,72.95
2023-04-15T17:53:05.089Z,73.09
2023-04-15T17:55:10.078Z,73.23
2023-04-15T17:57:13.841Z,73.12
2023-04-15T17:59:19.184Z,72.97
2023-04-15T18:01:26.759Z,73.37
2023-04-15T18:03:29.878Z,73.06
2023-04-15T18:05:52.891Z,73.17
2023-04-15T18:08:01.501Z,73.25
2023-04-15T18:10:14.663Z,73.19
2023-04-15T18:12:17.688Z,73.07
2023-04-15T18:14:33.639Z,73.06
2023-04-15T18:16:42.929Z,73.18
2023-04-15T18:18:46.063Z,73.27
2023-04-15T18:21:04.459Z,73.00
2023-04-15T18:23:14.759Z,72.93
2023-04-15T18:25:21.029Z,73.01
2023-04-15T18:27:26.512Z,73.04
2023-04-15T18:29:32.864Z,72.94
2023-04-15T18:31:37.494Z,72.80
2023-04-15T18:33:41.845Z,73.12
2023-04-15T18:35:44.772Z,73.12
2023-04-15T18:37:51.413Z,72.97
2023-04-15T18:40:18.619Z,73.15
2023-04-15T18:42:28.078Z,73.20
2023-04-15T18:44:34.408Z,73.07
2023-04-15T18:46:42.790Z,73.06
2023-04-15T18:48:46.981Z,73.04
2023-04-15T18:51:02.508Z,73.27
2023-04-15T18:53:19.869Z,73.17
2023-04-15T18:55:42.805Z,73.34
2023-04-15T18:57:46.925Z,73.47
2023-04-15T18:59:55.656Z,73.36
2023-04-15T19:02:04.437Z,73.59
2023-04-15T19:04:07.866Z,73.46
2023-04-15T19:06:13.929Z,73.34
2023-04-15T19:08:18.474Z,73.44
2023-04-15T19:10:24.941Z,73.33
2023-04-15T19:12:28.031Z,73.10
2023-04-15T19:14:31.907Z,73.24
2023-04-15T19:16:42.463Z,73.11
2023-04-15T19:18:46.805Z,73.22
2023-04-15T19:20:53.508Z,73.39
2023-04-15T19:23:00.795Z,73.70
2023-04-15T19:25:14.353Z,73.37
2023-04-15T19:27:18.577Z,73.34
2023-04-15T19:29:26.698Z,73.39
2023-04-15T19:31:31.108Z,73.31
2023-04-15T19:33:37.886Z,73.35
2023-04-15T19:35:43.213Z,73.37
2023-04-15T19:37:49.463Z,73.40
2023-04-15T19:39:56.167Z,73.48
2023-04-15T19:42:24.855Z,73.70
2023-04-15T19:44:34.822Z,73.51
2023-04-15T19:46:47.816Z,73.34
2023-04-15T19:48:55.320Z,73.43
2023-04-15T19:51:03.132Z,73.35
2023-04-15T19:53:08.594Z,73.42
2023-04-15T19:55:21.124Z,73.29
2023-04-15T19:57:24.419Z,73.37
2023-04-15T19:59:27.889Z,73.28
2023-04-15T20:01:33.530Z,73.13
2023-04-15T20:03:36.647Z,73.35
2023-04-15T20:05:43.272Z,73.44
2023-04-15T20:07:48.471Z,73.38
2023-04-15T20:09:54.697Z,73.43
2023-04-15T20:12:45.690Z,73.20
2023-04-15T20:14:24.567Z,73.23
2023-04-15T20:16:27.511Z,73.11
2023-04-15T20:18:33.233Z,73.20
2023-04-15T20:20:39.734Z,73.21
2023-04-15T20:22:42.417Z,73.12
2023-04-15T20:24:46.324Z,73.07
2023-04-15T20:26:59.219Z,73.41
2023-04-15T20:29:18.553Z,73.32
2023-04-15T20:31:22.957Z,73.46
2023-04-15T20:33:28.005Z,73.23
2023-04-15T20:35:31.964Z,73.39
2023-04-15T20:37:35.109Z,73.42
2023-04-15T20:39:39.029Z,73.34
2023-04-15T20:41:51.307Z,73.46
2023-04-15T20:43:54.209Z,73.61
2023-04-15T20:46:09.915Z,73.54
2023-04-15T20:48:26.482Z,73.56
2023-04-15T20:50:29.504Z,73.48
2023-04-15T20:52:33.147Z,73.58
2023-04-15T20:54:36.065Z,73.70
2023-04-15T20:56:44.367Z,73.70
2023-04-15T20:58:48.050Z,73.64
2023-04-15T21:00:54.799Z,73.69
2023-04-15T21:02:59.541Z,73.64
2023-04-15T21:05:07.852Z,73.85
2023-04-15T21:07:13.613Z,73.82
2023-04-15T21:09:17.645Z,73.80
2023-04-15T21:11:43.212Z,73.74
2023-04-15T21:13:52.986Z,73.88
2023-04-15T21:15:56.927Z,73.90
2023-04-15T21:18:05.075Z,73.99
2023-04-15T21:20:12.702Z,73.69
2023-04-15T21:22:21.595Z,73.59
2023-04-15T21:24:28.393Z,73.63
2023-04-15T21:26:32.896Z,73.85
2023-04-15T21:28:41.385Z,73.82
2023-04-15T21:30:56.147Z,73.57
2023-04-15T21:33:01.804Z,73.64
2023-04-15T21:35:05.900Z,73.53
2023-04-15T21:37:10.834Z,73.58
2023-04-15T21:39:14.166Z,73.52
2023-04-15T21:41:17.204Z,73.54
2023-04-15T21:43:26.157Z,73.35
2023-04-15T21:45:29.594Z,73.38
2023-04-15T21:48:04.456Z,73.30
2023-04-15T21:49:57.092Z,73.46
2023-04-15T21:52:02.376Z,73.46
2023-04-15T21:54:07.176Z,73.60
2023-04-15T21:56:10.939Z,73.67
2023-04-15T21:58:16.391Z,73.73
2023-04-15T22:00:24.070Z,73.73
2023-04-15T22:02:36.533Z,73.81
2023-04-15T22:04:39.575Z,73.71
2023-04-15T22:06:42.477Z,73.60
2023-04-15T22:08:56.286Z,73.57
2023-04-15T22:10:59.951Z,73.81
2023-04-15T22:13:08.052Z,73.56
2023-04-15T22:15:13.751Z,73.60
2023-04-15T22:17:18.658Z,73.62
2023-04-15T22:19:36.562Z,73.71
2023-04-15T22:21:39.263Z,73.67
2023-04-15T22:23:42.182Z,73.73
2023-04-15T22:25:46.330Z,73.76
2023-04-15T22:27:49.268Z,73.90
2023-04-15T22:29:56.185Z,73.86
2023-04-15T22:31:59.247Z,73.64
2023-04-15T22:34:09.832Z,73.73
2023-04-15T22:36:17.448Z,73.74
2023-04-15T22:38:21.795Z,73.69
2023-04-15T22:40:34.243Z,73.69
2023-04-15T22:42:37.776Z,73.47
2023-04-15T22:44:41.438Z,73.45
2023-04-15T22:46:46.101Z,73.55
2023-04-15T22:48:51.256Z,73.53
2023-04-15T22:50:58.340Z,73.53
2023-04-15T22:53:01.191Z,73.57
2023-04-15T22:55:09.984Z,73.62
2023-04-15T22:57:29.028Z,73.58
2023-04-15T22:59:35.261Z,73.64
2023-04-15T23:01:40.612Z,73.78
2023-04-15T23:03:58.526Z,73.78
2023-04-15T23:06:20.344Z,73.79
2023-04-15T23:08:26.399Z,73.65
2023-04-15T23:10:32.147Z,73.75
2023-04-15T23:12:41.211Z,73.92
2023-04-15T23:14:45.118Z,74.09
2023-04-15T23:16:52.309Z,74.00
2023-04-15T23:18:55.525Z,73.78
2023-04-15T23:21:16.940Z,73.73
2023-04-15T23:23:22.149Z,73.84
2023-04-15T23:25:25.755Z,73.81
2023-04-15T23:27:36.336Z,73.92
2023-04-15T23:29:39.884Z,73.92
2023-04-15T23:31:42.754Z,73.85
2023-04-15T23:33:46.890Z,73.74
2023-04-15T23:35:50.391Z,73.77
2023-04-15T23:37:56.650Z,73.68
2023-04-15T23:40:00.061Z,73.70
2023-04-15T23:42:10.340Z,73.65
2023-04-15T23:44:16.060Z,73.34
2023-04-15T23:46:21.238Z,73.66
2023-04-15T23:48:26.476Z,73.76
2023-04-15T23:50:30.766Z,73.57
2023-04-15T23:52:37.794Z,73.61
2023-04-15T23:54:43.016Z,73.58
2023-04-15T23:56:47.290Z,73.54
2023-04-15T23:58:50.133Z,73.62
